sensor_id;sensor_type;location;lat;lon;timestamp;temperature;humidity
6810;DHT22;3443;48.812;9.112;2022-12-04T00:01:52;1.50;99.90
6810;DHT22;3443;48.812;9.112;2022-12-04T00:04:17;1.50;99.90
6810;DHT22;3443;48.812;9.112;2022-12-04T00:06:43;1.50;99.90
6810;DHT22;3443;48.812;9.112;2022-12-04T00:09:09;1.50;99.90
6810;DHT22;3443;48.812;9.112;2022-12-04T00:11:34;1.50;99.90
6810;DHT22;3443;48.812;9.112;2022-12-04T00:14:00;1.50;99.90
6810;DHT22;3443;48.812;9.112;2022-12-04T00:16:27;1.60;99.90
6810;DHT22;3443;48.812;9.112;2022-12-04T00:18:54;1.60;99.90
6810;DHT22;3443;48.812;9.112;2022-12-04T00:21:21;1.60;99.90
6810;DHT22;3443;48.812;9.112;2022-12-04T00:23:46;1.60;99.90
6810;DHT22;3443;48.812;9.112;2022-12-04T00:26:15;1.60;99.90
6810;DHT22;3443;48.812;9.112;2022-12-04T00:28:41;1.60;99.90
6810;DHT22;3443;48.812;9.112;2022-12-04T00:31:09;1.60;99.90
6810;DHT22;3443;48.812;9.112;2022-12-04T00:33:35;1.60;99.90
6810;DHT22;3443;48.812;9.112;2022-12-04T00:36:06;1.40;99.90
6810;DHT22;3443;48.812;9.112;2022-12-04T00:38:32;1.60;99.90
6810;DHT22;3443;48.812;9.112;2022-12-04T00:40:57;1.60;99.90
6810;DHT22;3443;48.812;9.112;2022-12-04T00:43:26;1.60;99.90
6810;DHT22;3443;48.812;9.112;2022-12-04T00:45:51;1.60;99.90
6810;DHT22;3443;48.812;9.112;2022-12-04T00:48:17;1.60;99.90
6810;DHT22;3443;48.812;9.112;2022-12-04T00:50:43;1.60;99.90
6810;DHT22;3443;48.812;9.112;2022-12-04T00:53:10;1.60;99.90
6810;DHT22;3443;48.812;9.112;2022-12-04T00:55:42;1.60;99.90
6810;DHT22;3443;48.812;9.112;2022-12-04T00:58:09;1.60;99.90
6810;DHT22;3443;48.812;9.112;2022-12-04T01:00:37;1.50;99.90
6810;DHT22;3443;48.812;9.112;2022-12-04T01:03:03;1.60;99.90
6810;DHT22;3443;48.812;9.112;2022-12-04T01:05:28;1.60;99.90
6810;DHT22;3443;48.812;9.112;2022-12-04T01:07:54;1.60;99.90
6810;DHT22;3443;48.812;9.112;2022-12-04T01:10:20;1.60;99.90
6810;DHT22;3443;48.812;9.112;2022-12-04T01:12:48;1.60;99.90
6810;DHT22;3443;48.812;9.112;2022-12-04T01:15:14;1.50;99.90
6810;DHT22;3443;48.812;9.112;2022-12-04T01:17:39;1.50;99.90
6810;DHT22;3443;48.812;9.112;2022-12-04T01:20:05;1.60;99.90
6810;DHT22;3443;48.812;9.112;2022-12-04T01:22:31;1.60;99.90
6810;DHT22;3443;48.812;9.112;2022-12-04T01:24:57;1.60;99.90
6810;DHT22;3443;48.812;9.112;2022-12-04T01:27:23;1.60;99.90
6810;DHT22;3443;48.812;9.112;2022-12-04T01:29:48;1.70;99.90
6810;DHT22;3443;48.812;9.112;2022-12-04T01:32:14;1.70;99.90
6810;DHT22;3443;48.812;9.112;2022-12-04T01:34:40;1.70;99.90
6810;DHT22;3443;48.812;9.112;2022-12-04T01:37:05;1.70;99.90
6810;DHT22;3443;48.812;9.112;2022-12-04T01:39:31;1.70;99.90
6810;DHT22;3443;48.812;9.112;2022-12-04T01:41:57;1.70;99.90
6810;DHT22;3443;48.812;9.112;2022-12-04T01:44:25;1.60;99.90
6810;DHT22;3443;48.812;9.112;2022-12-04T01:46:55;1.60;99.90
6810;DHT22;3443;48.812;9.112;2022-12-04T01:49:27;1.60;99.90
6810;DHT22;3443;48.812;9.112;2022-12-04T01:52:18;1.60;99.90
6810;DHT22;3443;48.812;9.112;2022-12-04T01:54:49;1.60;99.90
6810;DHT22;3443;48.812;9.112;2022-12-04T01:57:18;1.60;99.90
6810;DHT22;3443;48.812;9.112;2022-12-04T01:59:50;1.60;99.90
6810;DHT22;3443;48.812;9.112;2022-12-04T02:02:23;1.60;99.90
6810;DHT22;3443;48.812;9.112;2022-12-04T02:04:50;1.70;99.90
6810;DHT22;3443;48.812;9.112;2022-12-04T02:07:16;1.70;99.90
6810;DHT22;3443;48.812;9.112;2022-12-04T02:09:42;1.70;99.90
6810;DHT22;3443;48.812;9.112;2022-12-04T02:12:23;1.80;99.90
6810;DHT22;3443;48.812;9.112;2022-12-04T02:18:03;1.70;99.90
6810;DHT22;3443;48.812;9.112;2022-12-04T02:20:39;1.70;99.90
6810;DHT22;3443;48.812;9.112;2022-12-04T02:29:16;1.70;99.90
6810;DHT22;3443;48.812;9.112;2022-12-04T02:34:36;1.80;99.90
6810;DHT22;3443;48.812;9.112;2022-12-04T02:37:13;1.80;99.90
6810;DHT22;3443;48.812;9.112;2022-12-04T02:39:55;1.80;99.90
6810;DHT22;3443;48.812;9.112;2022-12-04T02:42:32;1.80;99.90
6810;DHT22;3443;48.812;9.112;2022-12-04T02:45:02;1.90;99.90
6810;DHT22;3443;48.812;9.112;2022-12-04T02:47:31;1.90;99.90
6810;DHT22;3443;48.812;9.112;2022-12-04T02:49:59;1.90;99.90
6810;DHT22;3443;48.812;9.112;2022-12-04T02:52:50;1.80;99.90
6810;DHT22;3443;48.812;9.112;2022-12-04T02:55:49;1.80;99.90
6810;DHT22;3443;48.812;9.112;2022-12-04T02:58:26;1.90;99.90
6810;DHT22;3443;48.812;9.112;2022-12-04T03:00:54;1.90;99.90
6810;DHT22;3443;48.812;9.112;2022-12-04T03:03:24;1.90;99.90
6810;DHT22;3443;48.812;9.112;2022-12-04T03:08:28;1.90;99.90
6810;DHT22;3443;48.812;9.112;2022-12-04T03:10:57;1.80;99.90
6810;DHT22;3443;48.812;9.112;2022-12-04T03:14:16;1.80;99.90
6810;DHT22;3443;48.812;9.112;2022-12-04T03:16:36;1.90;99.90
6810;DHT22;3443;48.812;9.112;2022-12-04T03:21:36;1.80;99.90
6810;DHT22;3443;48.812;9.112;2022-12-04T03:24:13;1.90;99.90
6810;DHT22;3443;48.812;9.112;2022-12-04T03:29:43;1.90;99.90
6810;DHT22;3443;48.812;9.112;2022-12-04T03:34:57;1.90;99.90
6810;DHT22;3443;48.812;9.112;2022-12-04T03:42:45;2.00;99.90
6810;DHT22;3443;48.812;9.112;2022-12-04T03:48:06;1.90;99.90
6810;DHT22;3443;48.812;9.112;2022-12-04T03:50:45;1.90;99.90
6810;DHT22;3443;48.812;9.112;2022-12-04T03:53:32;1.90;99.90
6810;DHT22;3443;48.812;9.112;2022-12-04T03:56:14;1.90;99.90
6810;DHT22;3443;48.812;9.112;2022-12-04T03:58:51;1.90;99.90
6810;DHT22;3443;48.812;9.112;2022-12-04T04:01:22;1.90;99.90
6810;DHT22;3443;48.812;9.112;2022-12-04T04:03:52;1.90;99.90
6810;DHT22;3443;48.812;9.112;2022-12-04T04:06:23;1.90;99.90
6810;DHT22;3443;48.812;9.112;2022-12-04T04:08:53;1.80;99.90
6810;DHT22;3443;48.812;9.112;2022-12-04T04:11:26;1.80;99.90
6810;DHT22;3443;48.812;9.112;2022-12-04T04:14:07;1.80;99.90
6810;DHT22;3443;48.812;9.112;2022-12-04T04:16:59;1.90;99.90
6810;DHT22;3443;48.812;9.112;2022-12-04T04:19:48;1.90;99.90
6810;DHT22;3443;48.812;9.112;2022-12-04T04:22:34;1.90;99.90
6810;DHT22;3443;48.812;9.112;2022-12-04T04:25:20;1.90;99.90
6810;DHT22;3443;48.812;9.112;2022-12-04T04:27:53;1.90;99.90
6810;DHT22;3443;48.812;9.112;2022-12-04T04:30:19;1.90;99.90
6810;DHT22;3443;48.812;9.112;2022-12-04T04:32:58;1.90;99.90
6810;DHT22;3443;48.812;9.112;2022-12-04T04:38:44;1.90;99.90
6810;DHT22;3443;48.812;9.112;2022-12-04T04:41:19;1.90;99.90
6810;DHT22;3443;48.812;9.112;2022-12-04T04:46:27;2.00;99.90
6810;DHT22;3443;48.812;9.112;2022-12-04T04:48:57;2.00;99.90
6810;DHT22;3443;48.812;9.112;2022-12-04T04:51:27;2.00;99.90
6810;DHT22;3443;48.812;9.112;2022-12-04T04:53:57;2.00;99.90
6810;DHT22;3443;48.812;9.112;2022-12-04T04:56:25;1.90;99.90
6810;DHT22;3443;48.812;9.112;2022-12-04T04:58:51;1.90;99.90
6810;DHT22;3443;48.812;9.112;2022-12-04T05:01:22;1.90;99.90
6810;DHT22;3443;48.812;9.112;2022-12-04T05:03:48;1.90;99.90
6810;DHT22;3443;48.812;9.112;2022-12-04T05:06:14;1.90;99.90
6810;DHT22;3443;48.812;9.112;2022-12-04T05:08:40;1.90;99.90
6810;DHT22;3443;48.812;9.112;2022-12-04T05:11:09;2.00;99.90
6810;DHT22;3443;48.812;9.112;2022-12-04T05:13:35;2.00;99.90
6810;DHT22;3443;48.812;9.112;2022-12-04T05:16:06;2.00;99.90
6810;DHT22;3443;48.812;9.112;2022-12-04T05:18:33;2.00;99.90
6810;DHT22;3443;48.812;9.112;2022-12-04T05:21:01;2.00;99.90
6810;DHT22;3443;48.812;9.112;2022-12-04T05:23:28;2.00;99.90
6810;DHT22;3443;48.812;9.112;2022-12-04T05:26:01;2.00;99.90
6810;DHT22;3443;48.812;9.112;2022-12-04T05:28:27;2.00;99.90
6810;DHT22;3443;48.812;9.112;2022-12-04T05:30:54;2.00;99.90
6810;DHT22;3443;48.812;9.112;2022-12-04T05:33:20;2.10;99.90
6810;DHT22;3443;48.812;9.112;2022-12-04T05:35:58;2.10;99.90
6810;DHT22;3443;48.812;9.112;2022-12-04T05:38:24;2.10;99.90
6810;DHT22;3443;48.812;9.112;2022-12-04T05:40:50;2.00;99.90
6810;DHT22;3443;48.812;9.112;2022-12-04T05:43:15;2.00;99.90
6810;DHT22;3443;48.812;9.112;2022-12-04T05:45:41;2.00;99.90
6810;DHT22;3443;48.812;9.112;2022-12-04T05:48:06;2.00;99.90
6810;DHT22;3443;48.812;9.112;2022-12-04T05:50:32;2.00;99.90
6810;DHT22;3443;48.812;9.112;2022-12-04T05:52:57;2.10;99.90
6810;DHT22;3443;48.812;9.112;2022-12-04T05:55:23;2.10;99.90
6810;DHT22;3443;48.812;9.112;2022-12-04T05:57:48;2.10;99.90
6810;DHT22;3443;48.812;9.112;2022-12-04T06:00:14;2.00;99.90
6810;DHT22;3443;48.812;9.112;2022-12-04T06:02:40;1.90;99.90
6810;DHT22;3443;48.812;9.112;2022-12-04T06:05:06;1.90;99.90
6810;DHT22;3443;48.812;9.112;2022-12-04T06:07:31;1.90;99.90
6810;DHT22;3443;48.812;9.112;2022-12-04T06:09:57;1.90;99.90
6810;DHT22;3443;48.812;9.112;2022-12-04T06:12:23;2.00;99.90
6810;DHT22;3443;48.812;9.112;2022-12-04T06:14:48;2.00;99.90
6810;DHT22;3443;48.812;9.112;2022-12-04T06:17:14;2.00;99.90
6810;DHT22;3443;48.812;9.112;2022-12-04T06:19:39;2.00;99.90
6810;DHT22;3443;48.812;9.112;2022-12-04T06:22:05;2.00;99.90
6810;DHT22;3443;48.812;9.112;2022-12-04T06:24:30;2.00;99.90
6810;DHT22;3443;48.812;9.112;2022-12-04T06:26:57;2.00;99.90
6810;DHT22;3443;48.812;9.112;2022-12-04T06:29:23;2.00;99.90
6810;DHT22;3443;48.812;9.112;2022-12-04T06:31:49;2.00;99.90
6810;DHT22;3443;48.812;9.112;2022-12-04T06:34:15;2.00;99.90
6810;DHT22;3443;48.812;9.112;2022-12-04T06:39:08;2.00;99.90
6810;DHT22;3443;48.812;9.112;2022-12-04T06:41:34;2.00;99.90
6810;DHT22;3443;48.812;9.112;2022-12-04T06:43:59;2.00;99.90
6810;DHT22;3443;48.812;9.112;2022-12-04T06:46:30;2.00;99.90
6810;DHT22;3443;48.812;9.112;2022-12-04T06:48:57;1.90;99.90
6810;DHT22;3443;48.812;9.112;2022-12-04T06:51:26;2.00;99.90
6810;DHT22;3443;48.812;9.112;2022-12-04T06:53:52;2.00;99.90
6810;DHT22;3443;48.812;9.112;2022-12-04T06:56:21;2.00;99.90
6810;DHT22;3443;48.812;9.112;2022-12-04T06:58:49;1.90;99.90
6810;DHT22;3443;48.812;9.112;2022-12-04T07:01:19;2.00;99.90
6810;DHT22;3443;48.812;9.112;2022-12-04T07:03:46;2.00;99.90
6810;DHT22;3443;48.812;9.112;2022-12-04T07:08:37;2.00;99.90
6810;DHT22;3443;48.812;9.112;2022-12-04T07:11:02;2.00;99.90
6810;DHT22;3443;48.812;9.112;2022-12-04T07:13:28;1.90;99.90
6810;DHT22;3443;48.812;9.112;2022-12-04T07:15:53;1.90;99.90
6810;DHT22;3443;48.812;9.112;2022-12-04T07:18:19;1.80;99.90
6810;DHT22;3443;48.812;9.112;2022-12-04T07:20:44;1.80;99.90
6810;DHT22;3443;48.812;9.112;2022-12-04T07:23:10;1.90;99.90
6810;DHT22;3443;48.812;9.112;2022-12-04T07:25:39;1.90;99.90
6810;DHT22;3443;48.812;9.112;2022-12-04T07:28:05;1.90;99.90
6810;DHT22;3443;48.812;9.112;2022-12-04T07:30:31;1.90;99.90
6810;DHT22;3443;48.812;9.112;2022-12-04T07:32:56;1.80;99.90
6810;DHT22;3443;48.812;9.112;2022-12-04T07:35:22;1.80;99.90
6810;DHT22;3443;48.812;9.112;2022-12-04T07:37:47;1.80;99.90
6810;DHT22;3443;48.812;9.112;2022-12-04T07:40:13;1.80;99.90
6810;DHT22;3443;48.812;9.112;2022-12-04T07:42:39;1.80;99.90
6810;DHT22;3443;48.812;9.112;2022-12-04T07:45:05;1.80;99.90
6810;DHT22;3443;48.812;9.112;2022-12-04T07:47:31;1.80;99.90
6810;DHT22;3443;48.812;9.112;2022-12-04T07:49:58;1.70;99.90
6810;DHT22;3443;48.812;9.112;2022-12-04T07:52:24;1.70;99.90
6810;DHT22;3443;48.812;9.112;2022-12-04T07:54:50;1.80;99.90
6810;DHT22;3443;48.812;9.112;2022-12-04T07:57:15;1.80;99.90
6810;DHT22;3443;48.812;9.112;2022-12-04T07:59:41;1.80;99.90
6810;DHT22;3443;48.812;9.112;2022-12-04T08:02:06;1.80;99.90
6810;DHT22;3443;48.812;9.112;2022-12-04T08:04:32;1.80;99.90
6810;DHT22;3443;48.812;9.112;2022-12-04T08:06:57;1.80;99.90
6810;DHT22;3443;48.812;9.112;2022-12-04T08:09:23;1.80;99.90
6810;DHT22;3443;48.812;9.112;2022-12-04T08:11:48;1.80;99.90
6810;DHT22;3443;48.812;9.112;2022-12-04T08:14:14;1.90;99.90
6810;DHT22;3443;48.812;9.112;2022-12-04T08:16:40;1.50;99.90
6810;DHT22;3443;48.812;9.112;2022-12-04T08:19:05;2.00;99.90
6810;DHT22;3443;48.812;9.112;2022-12-04T08:21:31;1.90;99.90
6810;DHT22;3443;48.812;9.112;2022-12-04T08:23:58;1.90;99.90
6810;DHT22;3443;48.812;9.112;2022-12-04T08:26:27;1.90;99.90
6810;DHT22;3443;48.812;9.112;2022-12-04T08:28:54;1.90;99.90
6810;DHT22;3443;48.812;9.112;2022-12-04T08:31:23;1.90;99.90
6810;DHT22;3443;48.812;9.112;2022-12-04T08:33:49;1.90;99.90
6810;DHT22;3443;48.812;9.112;2022-12-04T08:36:18;1.90;99.90
6810;DHT22;3443;48.812;9.112;2022-12-04T08:38:44;1.90;99.90
6810;DHT22;3443;48.812;9.112;2022-12-04T08:41:12;2.00;99.90
6810;DHT22;3443;48.812;9.112;2022-12-04T08:43:38;2.10;99.90
6810;DHT22;3443;48.812;9.112;2022-12-04T08:46:06;2.10;99.90
6810;DHT22;3443;48.812;9.112;2022-12-04T08:48:32;2.10;99.90
6810;DHT22;3443;48.812;9.112;2022-12-04T08:50:59;2.10;99.90
6810;DHT22;3443;48.812;9.112;2022-12-04T08:53:24;2.10;99.90
6810;DHT22;3443;48.812;9.112;2022-12-04T08:55:51;2.10;99.90
6810;DHT22;3443;48.812;9.112;2022-12-04T08:58:18;2.20;99.90
6810;DHT22;3443;48.812;9.112;2022-12-04T09:00:44;2.30;99.90
6810;DHT22;3443;48.812;9.112;2022-12-04T09:03:15;2.30;99.90
6810;DHT22;3443;48.812;9.112;2022-12-04T09:05:41;2.40;99.90
6810;DHT22;3443;48.812;9.112;2022-12-04T09:08:07;2.30;99.90
6810;DHT22;3443;48.812;9.112;2022-12-04T09:10:36;2.30;99.90
6810;DHT22;3443;48.812;9.112;2022-12-04T09:13:03;2.30;99.90
6810;DHT22;3443;48.812;9.112;2022-12-04T09:15:28;2.30;99.90
6810;DHT22;3443;48.812;9.112;2022-12-04T09:17:54;2.30;99.90
6810;DHT22;3443;48.812;9.112;2022-12-04T09:20:20;2.30;99.90
6810;DHT22;3443;48.812;9.112;2022-12-04T09:22:45;2.30;99.90
6810;DHT22;3443;48.812;9.112;2022-12-04T09:25:11;2.30;99.90
6810;DHT22;3443;48.812;9.112;2022-12-04T09:27:39;2.30;99.90
6810;DHT22;3443;48.812;9.112;2022-12-04T09:30:10;2.40;99.90
6810;DHT22;3443;48.812;9.112;2022-12-04T09:32:36;2.40;99.90
6810;DHT22;3443;48.812;9.112;2022-12-04T09:35:03;2.50;99.90
6810;DHT22;3443;48.812;9.112;2022-12-04T09:37:29;2.50;99.90
6810;DHT22;3443;48.812;9.112;2022-12-04T09:39:54;2.50;99.90
6810;DHT22;3443;48.812;9.112;2022-12-04T09:45:14;2.50;99.90
6810;DHT22;3443;48.812;9.112;2022-12-04T09:47:46;2.50;99.90
6810;DHT22;3443;48.812;9.112;2022-12-04T09:50:24;2.60;99.90
6810;DHT22;3443;48.812;9.112;2022-12-04T09:52:54;2.60;99.90
6810;DHT22;3443;48.812;9.112;2022-12-04T09:55:27;2.60;99.90
6810;DHT22;3443;48.812;9.112;2022-12-04T09:57:57;2.60;99.90
6810;DHT22;3443;48.812;9.112;2022-12-04T10:00:23;2.60;99.90
6810;DHT22;3443;48.812;9.112;2022-12-04T10:03:00;2.50;99.90
6810;DHT22;3443;48.812;9.112;2022-12-04T10:06:10;2.40;99.90
6810;DHT22;3443;48.812;9.112;2022-12-04T10:08:34;2.40;99.90
6810;DHT22;3443;48.812;9.112;2022-12-04T10:11:16;2.40;99.90
6810;DHT22;3443;48.812;9.112;2022-12-04T10:14:02;2.30;99.90
6810;DHT22;3443;48.812;9.112;2022-12-04T10:22:02;2.30;99.90
6810;DHT22;3443;48.812;9.112;2022-12-04T10:24:47;2.30;99.90
6810;DHT22;3443;48.812;9.112;2022-12-04T10:27:24;2.30;99.90
6810;DHT22;3443;48.812;9.112;2022-12-04T10:30:24;2.40;99.90
6810;DHT22;3443;48.812;9.112;2022-12-04T10:32:57;2.30;99.90
6810;DHT22;3443;48.812;9.112;2022-12-04T10:35:27;2.30;99.90
6810;DHT22;3443;48.812;9.112;2022-12-04T10:38:03;2.30;99.90
6810;DHT22;3443;48.812;9.112;2022-12-04T10:40:34;2.20;99.90
6810;DHT22;3443;48.812;9.112;2022-12-04T10:43:31;2.20;99.90
6810;DHT22;3443;48.812;9.112;2022-12-04T10:45:59;2.60;99.90
6810;DHT22;3443;48.812;9.112;2022-12-04T10:48:33;2.20;99.90
6810;DHT22;3443;48.812;9.112;2022-12-04T10:51:00;2.20;99.90
6810;DHT22;3443;48.812;9.112;2022-12-04T10:53:31;2.20;99.90
6810;DHT22;3443;48.812;9.112;2022-12-04T10:58:39;2.20;99.90
6810;DHT22;3443;48.812;9.112;2022-12-04T11:01:07;2.20;99.90
6810;DHT22;3443;48.812;9.112;2022-12-04T11:03:34;2.20;99.90
6810;DHT22;3443;48.812;9.112;2022-12-04T11:06:03;2.30;99.90
6810;DHT22;3443;48.812;9.112;2022-12-04T11:08:33;2.20;99.90
6810;DHT22;3443;48.812;9.112;2022-12-04T11:11:02;2.30;99.90
6810;DHT22;3443;48.812;9.112;2022-12-04T11:13:28;2.30;99.90
6810;DHT22;3443;48.812;9.112;2022-12-04T11:15:55;2.30;99.90
6810;DHT22;3443;48.812;9.112;2022-12-04T11:20:55;2.30;99.90
6810;DHT22;3443;48.812;9.112;2022-12-04T11:23:22;2.30;99.90
6810;DHT22;3443;48.812;9.112;2022-12-04T11:25:50;2.20;99.90
6810;DHT22;3443;48.812;9.112;2022-12-04T11:28:28;2.30;99.90
6810;DHT22;3443;48.812;9.112;2022-12-04T11:31:00;2.30;99.90
6810;DHT22;3443;48.812;9.112;2022-12-04T11:33:37;2.30;99.90
6810;DHT22;3443;48.812;9.112;2022-12-04T11:36:15;2.30;99.90
6810;DHT22;3443;48.812;9.112;2022-12-04T11:38:43;2.30;99.90
6810;DHT22;3443;48.812;9.112;2022-12-04T11:41:25;2.40;99.90
6810;DHT22;3443;48.812;9.112;2022-12-04T11:43:51;2.40;99.90
6810;DHT22;3443;48.812;9.112;2022-12-04T11:46:22;2.30;99.90
6810;DHT22;3443;48.812;9.112;2022-12-04T11:48:48;2.30;99.90
6810;DHT22;3443;48.812;9.112;2022-12-04T11:53:59;2.40;99.90
6810;DHT22;3443;48.812;9.112;2022-12-04T11:56:33;2.40;99.90
6810;DHT22;3443;48.812;9.112;2022-12-04T12:02:29;2.30;99.90
6810;DHT22;3443;48.812;9.112;2022-12-04T12:05:27;2.30;99.90
6810;DHT22;3443;48.812;9.112;2022-12-04T12:08:13;2.30;99.90
6810;DHT22;3443;48.812;9.112;2022-12-04T12:11:01;2.40;99.90
6810;DHT22;3443;48.812;9.112;2022-12-04T12:30:13;2.30;99.90
6810;DHT22;3443;48.812;9.112;2022-12-04T12:38:04;2.40;99.90
6810;DHT22;3443;48.812;9.112;2022-12-04T12:43:12;2.50;99.90
6810;DHT22;3443;48.812;9.112;2022-12-04T12:48:24;2.60;99.90
6810;DHT22;3443;48.812;9.112;2022-12-04T12:53:49;2.60;99.90
6810;DHT22;3443;48.812;9.112;2022-12-04T12:56:28;2.70;99.90
6810;DHT22;3443;48.812;9.112;2022-12-04T12:58:57;2.70;99.90
6810;DHT22;3443;48.812;9.112;2022-12-04T13:01:46;2.70;99.90
6810;DHT22;3443;48.812;9.112;2022-12-04T13:04:34;2.70;99.90
6810;DHT22;3443;48.812;9.112;2022-12-04T13:09:41;2.60;99.90
6810;DHT22;3443;48.812;9.112;2022-12-04T13:12:13;2.60;99.90
6810;DHT22;3443;48.812;9.112;2022-12-04T13:14:39;2.60;99.90
6810;DHT22;3443;48.812;9.112;2022-12-04T13:17:32;2.50;99.90
6810;DHT22;3443;48.812;9.112;2022-12-04T13:20:02;2.60;99.90
6810;DHT22;3443;48.812;9.112;2022-12-04T13:23:10;2.60;99.90
6810;DHT22;3443;48.812;9.112;2022-12-04T13:28:19;2.60;99.90
6810;DHT22;3443;48.812;9.112;2022-12-04T13:33:39;2.60;99.90
6810;DHT22;3443;48.812;9.112;2022-12-04T13:38:47;2.70;99.90
6810;DHT22;3443;48.812;9.112;2022-12-04T13:41:21;2.70;99.90
6810;DHT22;3443;48.812;9.112;2022-12-04T13:43:49;2.70;99.90
6810;DHT22;3443;48.812;9.112;2022-12-04T13:46:33;2.70;99.90
6810;DHT22;3443;48.812;9.112;2022-12-04T13:51:46;2.70;99.90
6810;DHT22;3443;48.812;9.112;2022-12-04T13:56:39;2.70;99.90
6810;DHT22;3443;48.812;9.112;2022-12-04T13:59:20;2.60;99.90
6810;DHT22;3443;48.812;9.112;2022-12-04T14:01:51;2.60;99.90
6810;DHT22;3443;48.812;9.112;2022-12-04T14:04:44;2.60;99.90
6810;DHT22;3443;48.812;9.112;2022-12-04T14:07:41;2.70;99.90
6810;DHT22;3443;48.812;9.112;2022-12-04T14:10:28;2.60;99.90
6810;DHT22;3443;48.812;9.112;2022-12-04T14:13:01;2.60;99.90
6810;DHT22;3443;48.812;9.112;2022-12-04T14:15:34;2.60;99.90
6810;DHT22;3443;48.812;9.112;2022-12-04T14:18:13;2.60;99.90
6810;DHT22;3443;48.812;9.112;2022-12-04T14:20:42;2.60;99.90
6810;DHT22;3443;48.812;9.112;2022-12-04T14:23:23;2.60;99.90
6810;DHT22;3443;48.812;9.112;2022-12-04T14:25:53;2.70;99.90
6810;DHT22;3443;48.812;9.112;2022-12-04T14:34:41;2.70;99.90
6810;DHT22;3443;48.812;9.112;2022-12-04T14:39:48;2.70;99.90
6810;DHT22;3443;48.812;9.112;2022-12-04T14:42:24;2.70;99.90
6810;DHT22;3443;48.812;9.112;2022-12-04T14:44:58;2.70;99.90
6810;DHT22;3443;48.812;9.112;2022-12-04T14:47:42;2.60;99.90
6810;DHT22;3443;48.812;9.112;2022-12-04T14:50:30;2.60;99.90
6810;DHT22;3443;48.812;9.112;2022-12-04T14:55:59;2.60;99.90
6810;DHT22;3443;48.812;9.112;2022-12-04T14:58:30;2.70;99.90
6810;DHT22;3443;48.812;9.112;2022-12-04T15:01:05;2.70;99.90
6810;DHT22;3443;48.812;9.112;2022-12-04T15:03:36;2.70;99.90
6810;DHT22;3443;48.812;9.112;2022-12-04T15:06:10;2.60;99.90
6810;DHT22;3443;48.812;9.112;2022-12-04T15:09:32;2.60;99.90
6810;DHT22;3443;48.812;9.112;2022-12-04T15:11:55;2.60;99.90
6810;DHT22;3443;48.812;9.112;2022-12-04T15:14:47;2.60;99.90
6810;DHT22;3443;48.812;9.112;2022-12-04T15:17:15;2.60;99.90
6810;DHT22;3443;48.812;9.112;2022-12-04T15:19:41;2.60;99.90
6810;DHT22;3443;48.812;9.112;2022-12-04T15:22:12;2.60;99.90
6810;DHT22;3443;48.812;9.112;2022-12-04T15:24:43;2.60;99.90
6810;DHT22;3443;48.812;9.112;2022-12-04T15:27:10;2.60;99.90
6810;DHT22;3443;48.812;9.112;2022-12-04T15:29:37;2.60;99.90
6810;DHT22;3443;48.812;9.112;2022-12-04T15:32:09;2.70;99.90
6810;DHT22;3443;48.812;9.112;2022-12-04T15:35:20;2.60;99.90
6810;DHT22;3443;48.812;9.112;2022-12-04T15:37:39;2.70;99.90
6810;DHT22;3443;48.812;9.112;2022-12-04T15:40:06;2.70;99.90
6810;DHT22;3443;48.812;9.112;2022-12-04T15:42:32;2.70;99.90
6810;DHT22;3443;48.812;9.112;2022-12-04T15:47:48;2.60;99.90
6810;DHT22;3443;48.812;9.112;2022-12-04T15:53:00;2.60;99.90
6810;DHT22;3443;48.812;9.112;2022-12-04T15:55:30;2.60;99.90
6810;DHT22;3443;48.812;9.112;2022-12-04T15:58:00;2.60;99.90
6810;DHT22;3443;48.812;9.112;2022-12-04T16:00:34;2.60;99.90
6810;DHT22;3443;48.812;9.112;2022-12-04T16:03:05;2.60;99.90
6810;DHT22;3443;48.812;9.112;2022-12-04T16:05:33;2.50;99.90
6810;DHT22;3443;48.812;9.112;2022-12-04T16:10:55;2.60;99.90
6810;DHT22;3443;48.812;9.112;2022-12-04T16:13:35;2.60;99.90
6810;DHT22;3443;48.812;9.112;2022-12-04T16:16:07;2.60;99.90
6810;DHT22;3443;48.812;9.112;2022-12-04T16:18:37;2.50;99.90
6810;DHT22;3443;48.812;9.112;2022-12-04T16:21:03;2.50;99.90
6810;DHT22;3443;48.812;9.112;2022-12-04T16:23:30;2.60;99.90
6810;DHT22;3443;48.812;9.112;2022-12-04T16:25:56;2.60;99.90
6810;DHT22;3443;48.812;9.112;2022-12-04T16:28:22;2.50;99.90
6810;DHT22;3443;48.812;9.112;2022-12-04T16:30:49;2.50;99.90
6810;DHT22;3443;48.812;9.112;2022-12-04T16:33:16;2.90;99.90
6810;DHT22;3443;48.812;9.112;2022-12-04T16:35:42;2.50;99.90
6810;DHT22;3443;48.812;9.112;2022-12-04T16:38:13;2.50;99.90
6810;DHT22;3443;48.812;9.112;2022-12-04T16:40:40;2.50;99.90
6810;DHT22;3443;48.812;9.112;2022-12-04T16:43:05;2.50;99.90
6810;DHT22;3443;48.812;9.112;2022-12-04T16:45:32;2.50;99.90
6810;DHT22;3443;48.812;9.112;2022-12-04T16:47:58;2.60;99.90
6810;DHT22;3443;48.812;9.112;2022-12-04T16:50:25;2.50;99.90
6810;DHT22;3443;48.812;9.112;2022-12-04T16:52:52;2.40;99.90
6810;DHT22;3443;48.812;9.112;2022-12-04T16:55:20;2.80;99.90
6810;DHT22;3443;48.812;9.112;2022-12-04T16:57:49;2.50;99.90
6810;DHT22;3443;48.812;9.112;2022-12-04T17:00:16;2.80;99.90
6810;DHT22;3443;48.812;9.112;2022-12-04T17:02:43;2.50;99.90
6810;DHT22;3443;48.812;9.112;2022-12-04T17:05:23;2.50;99.90
6810;DHT22;3443;48.812;9.112;2022-12-04T17:07:49;2.50;99.90
6810;DHT22;3443;48.812;9.112;2022-12-04T17:10:15;2.50;99.90
6810;DHT22;3443;48.812;9.112;2022-12-04T17:12:41;2.50;99.90
6810;DHT22;3443;48.812;9.112;2022-12-04T17:15:08;2.50;99.90
6810;DHT22;3443;48.812;9.112;2022-12-04T17:17:34;2.50;99.90
6810;DHT22;3443;48.812;9.112;2022-12-04T17:20:00;2.50;99.90
6810;DHT22;3443;48.812;9.112;2022-12-04T17:22:29;2.50;99.90
6810;DHT22;3443;48.812;9.112;2022-12-04T17:24:55;2.50;99.90
6810;DHT22;3443;48.812;9.112;2022-12-04T17:27:22;2.50;99.90
6810;DHT22;3443;48.812;9.112;2022-12-04T17:29:48;2.40;99.90
6810;DHT22;3443;48.812;9.112;2022-12-04T17:32:14;2.50;99.90
6810;DHT22;3443;48.812;9.112;2022-12-04T17:34:39;2.50;99.90
6810;DHT22;3443;48.812;9.112;2022-12-04T17:37:05;2.50;99.90
6810;DHT22;3443;48.812;9.112;2022-12-04T17:39:31;2.50;99.90
6810;DHT22;3443;48.812;9.112;2022-12-04T17:41:56;2.50;99.90
6810;DHT22;3443;48.812;9.112;2022-12-04T17:44:22;2.50;99.90
6810;DHT22;3443;48.812;9.112;2022-12-04T17:46:47;2.50;99.90
6810;DHT22;3443;48.812;9.112;2022-12-04T17:49:13;2.50;99.90
6810;DHT22;3443;48.812;9.112;2022-12-04T17:51:39;2.40;99.90
6810;DHT22;3443;48.812;9.112;2022-12-04T17:54:05;2.40;99.90
6810;DHT22;3443;48.812;9.112;2022-12-04T17:56:30;2.50;99.90
6810;DHT22;3443;48.812;9.112;2022-12-04T17:58:56;2.50;99.90
6810;DHT22;3443;48.812;9.112;2022-12-04T18:01:24;2.50;99.90
6810;DHT22;3443;48.812;9.112;2022-12-04T18:03:59;2.50;99.90
6810;DHT22;3443;48.812;9.112;2022-12-04T18:06:31;2.50;99.90
6810;DHT22;3443;48.812;9.112;2022-12-04T18:08:57;2.50;99.90
6810;DHT22;3443;48.812;9.112;2022-12-04T18:11:24;2.50;99.90
6810;DHT22;3443;48.812;9.112;2022-12-04T18:13:58;2.50;99.90
6810;DHT22;3443;48.812;9.112;2022-12-04T18:16:24;2.50;99.90
6810;DHT22;3443;48.812;9.112;2022-12-04T18:18:54;2.50;99.90
6810;DHT22;3443;48.812;9.112;2022-12-04T18:21:19;2.50;99.90
6810;DHT22;3443;48.812;9.112;2022-12-04T18:23:45;2.50;99.90
6810;DHT22;3443;48.812;9.112;2022-12-04T18:26:14;2.50;99.90
6810;DHT22;3443;48.812;9.112;2022-12-04T18:28:40;2.50;99.90
6810;DHT22;3443;48.812;9.112;2022-12-04T18:31:07;2.50;99.90
6810;DHT22;3443;48.812;9.112;2022-12-04T18:33:34;2.50;99.90
6810;DHT22;3443;48.812;9.112;2022-12-04T18:36:01;2.50;99.90
6810;DHT22;3443;48.812;9.112;2022-12-04T18:38:28;2.60;99.90
6810;DHT22;3443;48.812;9.112;2022-12-04T18:41:04;2.60;99.90
6810;DHT22;3443;48.812;9.112;2022-12-04T18:43:39;2.60;99.90
6810;DHT22;3443;48.812;9.112;2022-12-04T18:46:07;2.50;99.90